Time;durP1;ratioP1;P1;durP2;ratioP2;P2;SDS_P1;SDS_P2;PMS_P1;PMS_P2;Temp;Humidity;BMP_temperature;BMP_pressure;BME280_temperature;BME280_humidity;BME280_pressure;Samples;Min_cycle;Max_cycle;Signal;HPM_P1;HPM_P2
2022/07/13 00:01:08;;;;;;;1.90;1.80;;;25.50;73.30;;;;;;5075914;28;20528;-89
2022/07/13 00:03:36;;;;;;;1.90;1.80;;;25.50;73.30;;;;;;5076715;28;20476;-87
2022/07/13 00:06:03;;;;;;;1.83;1.73;;;25.50;73.30;;;;;;5094955;28;20479;-88
2022/07/13 00:08:30;;;;;;;1.80;1.70;;;25.50;73.40;;;;;;5095313;28;20604;-87
2022/07/13 00:10:57;;;;;;;2.43;1.50;;;25.60;73.40;;;;;;5095628;28;20479;-86
2022/07/13 00:13:25;;;;;;;1.97;1.87;;;25.50;73.40;;;;;;5095526;28;20518;-89
2022/07/13 00:15:52;;;;;;;1.67;1.57;;;25.50;74.20;;;;;;5095182;28;20479;-89
2022/07/13 00:18:19;;;;;;;2.23;2.03;;;25.50;73.40;;;;;;5095606;28;20491;-88
2022/07/13 00:20:46;;;;;;;2.00;1.90;;;25.50;73.40;;;;;;5095380;28;20476;-88
2022/07/13 00:23:13;;;;;;;1.97;1.77;;;25.50;73.40;;;;;;5095015;28;20572;-90
2022/07/13 00:25:40;;;;;;;1.80;1.70;;;25.50;73.40;;;;;;5095147;28;20535;-87
2022/07/13 00:28:06;;;;;;;1.97;1.87;;;25.50;73.40;;;;;;5094357;28;20539;-89
2022/07/13 00:30:35;;;;;;;2.10;1.90;;;25.50;73.50;;;;;;5095121;28;21138;-88
2022/07/13 00:33:02;;;;;;;1.83;1.73;;;25.50;73.50;;;;;;5095106;28;20777;-87
2022/07/13 00:35:29;;;;;;;1.97;1.87;;;25.50;73.50;;;;;;5095078;28;20467;-88
2022/07/13 00:37:56;;;;;;;2.90;2.70;;;25.50;73.40;;;;;;5094734;28;20468;-87
2022/07/13 00:40:22;;;;;;;2.00;1.90;;;25.50;73.50;;;;;;5094920;28;20519;-89
2022/07/13 00:42:49;;;;;;;1.70;1.60;;;25.50;73.50;;;;;;5094569;28;20440;-88
2022/07/13 00:45:16;;;;;;;1.60;1.50;;;25.50;73.60;;;;;;5094665;28;20440;-87
2022/07/13 00:47:46;;;;;;;2.37;2.27;;;25.50;73.60;;;;;;5094494;28;20467;-87
2022/07/13 00:50:13;;;;;;;1.70;1.60;;;25.50;73.70;;;;;;5094741;28;20486;-88
2022/07/13 00:52:42;;;;;;;2.10;2.00;;;25.50;74.00;;;;;;5094474;28;20515;-86
2022/07/13 00:55:10;;;;;;;2.00;1.90;;;25.50;73.80;;;;;;5094571;28;20875;-87
2022/07/13 00:57:38;;;;;;;1.90;1.80;;;25.50;73.80;;;;;;5094522;28;20464;-86
2022/07/13 01:00:07;;;;;;;2.03;1.93;;;25.50;73.80;;;;;;5094902;28;20520;-88
2022/07/13 01:02:36;;;;;;;2.30;2.10;;;25.50;73.80;;;;;;5094665;28;20436;-86
2022/07/13 01:05:05;;;;;;;1.90;1.80;;;25.50;73.90;;;;;;5078854;28;20516;-87
2022/07/13 01:07:33;;;;;;;2.03;1.93;;;25.50;74.10;;;;;;5074303;28;20436;-86
2022/07/13 01:10:00;;;;;;;2.10;2.00;;;25.50;74.10;;;;;;5074046;28;20465;-86
2022/07/13 01:12:29;;;;;;;2.30;2.10;;;25.50;74.10;;;;;;5073915;28;20529;-87
2022/07/13 01:14:58;;;;;;;1.70;1.60;;;25.50;74.20;;;;;;5077605;28;20444;-87
2022/07/13 01:17:26;;;;;;;2.07;1.97;;;25.50;74.10;;;;;;5093772;28;20467;-88
2022/07/13 01:19:54;;;;;;;2.77;2.20;;;25.60;74.30;;;;;;5094516;28;20485;-88
2022/07/13 01:22:25;;;;;;;2.17;2.00;;;25.50;74.30;;;;;;5094285;28;20489;-87
2022/07/13 01:24:55;;;;;;;1.63;1.53;;;25.50;75.20;;;;;;5088377;28;20567;-87
2022/07/13 01:27:22;;;;;;;2.03;1.73;;;25.60;74.40;;;;;;5073925;28;20437;-88
2022/07/13 01:29:49;;;;;;;2.07;1.87;;;25.50;74.30;;;;;;5073643;28;20532;-87
2022/07/13 01:32:16;;;;;;;2.20;2.10;;;25.50;74.30;;;;;;5073974;28;20962;-88
2022/07/13 01:34:43;;;;;;;2.03;1.73;;;25.50;74.40;;;;;;5073794;28;20527;-90
2022/07/13 01:37:11;;;;;;;2.07;1.97;;;25.50;75.30;;;;;;5085991;28;20445;-89
2022/07/13 01:39:37;;;;;;;2.37;2.23;;;25.50;74.40;;;;;;5094123;28;20495;-87
2022/07/13 01:42:06;;;;;;;1.93;1.83;;;25.60;74.50;;;;;;5082042;28;20783;-86
2022/07/13 01:44:33;;;;;;;2.53;2.33;;;25.50;74.40;;;;;;5073749;28;20512;-87
2022/07/13 01:47:07;;;;;;;2.00;1.90;;;25.50;74.50;;;;;;5074035;28;20528;-87
2022/07/13 01:49:33;;;;;;;1.80;1.70;;;25.60;74.60;;;;;;5087884;28;20482;-88
2022/07/13 01:52:01;;;;;;;1.90;1.80;;;25.60;74.40;;;;;;5084622;28;20520;-86
2022/07/13 01:54:27;;;;;;;2.30;2.10;;;25.60;74.40;;;;;;5073493;28;20547;-87
2022/07/13 01:56:54;;;;;;;2.30;1.97;;;25.50;74.50;;;;;;5074054;28;20532;-89
2022/07/13 01:59:23;;;;;;;1.97;1.87;;;25.60;74.50;;;;;;5073826;28;20483;-87
2022/07/13 02:01:49;;;;;;;2.30;2.20;;;25.50;74.40;;;;;;5073382;28;20432;-86
2022/07/13 02:04:16;;;;;;;1.93;1.83;;;25.50;74.30;;;;;;5073821;28;20568;-89
2022/07/13 02:06:43;;;;;;;2.30;2.10;;;25.50;74.20;;;;;;5073777;28;20476;-89
2022/07/13 02:09:10;;;;;;;2.30;2.10;;;25.60;75.00;;;;;;5073552;28;20489;-89
2022/07/13 02:11:37;;;;;;;2.07;1.97;;;25.50;74.20;;;;;;5073632;28;20477;-89
2022/07/13 02:14:04;;;;;;;2.40;2.30;;;25.50;74.20;;;;;;5093561;28;20877;-87
2022/07/13 02:16:32;;;;;;;1.97;1.87;;;25.60;74.20;;;;;;5093744;28;20539;-88
2022/07/13 02:18:59;;;;;;;2.07;1.90;;;25.50;74.00;;;;;;5093633;28;20974;-87
2022/07/13 02:21:26;;;;;;;1.83;1.73;;;25.50;73.90;;;;;;5093729;28;20481;-88
2022/07/13 02:23:53;;;;;;;2.50;2.30;;;25.50;73.80;;;;;;5093639;28;20507;-87
2022/07/13 02:26:19;;;;;;;1.73;1.63;;;25.60;73.90;;;;;;5087512;28;20433;-88
2022/07/13 02:28:46;;;;;;;1.80;1.70;;;25.50;73.90;;;;;;5075983;28;20524;-89
2022/07/13 02:31:17;;;;;;;2.17;2.07;;;25.50;73.80;;;;;;5078143;28;20814;-90
2022/07/13 02:33:45;;;;;;;1.80;1.70;;;25.60;73.90;;;;;;5077177;28;20531;-90
2022/07/13 02:36:12;;;;;;;2.00;1.90;;;25.50;73.80;;;;;;5084994;28;20518;-89
2022/07/13 02:38:39;;;;;;;2.20;2.00;;;25.60;74.00;;;;;;5097390;28;20470;-90
2022/07/13 02:41:06;;;;;;;1.80;1.70;;;25.50;73.90;;;;;;5097217;28;20524;-89
2022/07/13 02:43:32;;;;;;;1.70;1.60;;;25.50;73.90;;;;;;5097032;28;20446;-89
2022/07/13 02:45:59;;;;;;;1.60;1.50;;;25.50;74.00;;;;;;5097333;28;20862;-87
2022/07/13 02:48:26;;;;;;;1.60;1.50;;;25.50;74.20;;;;;;5097281;28;20450;-88
2022/07/13 02:50:54;;;;;;;2.03;1.93;;;25.50;74.20;;;;;;5096505;28;20442;-90
2022/07/13 02:53:21;;;;;;;1.70;1.60;;;25.50;74.30;;;;;;5096881;28;20443;-90
2022/07/13 02:55:48;;;;;;;1.80;1.70;;;25.50;74.30;;;;;;5100906;28;20491;-89
2022/07/13 02:58:15;;;;;;;2.17;2.03;;;25.50;74.40;;;;;;5121593;28;20439;-88
2022/07/13 03:00:42;;;;;;;2.67;2.17;;;25.60;74.40;;;;;;5121481;28;20435;-89
2022/07/13 03:03:09;;;;;;;1.93;1.77;;;25.50;74.20;;;;;;5116995;28;20436;-88
2022/07/13 03:05:35;;;;;;;2.00;1.90;;;25.60;74.40;;;;;;5096941;28;21024;-90
2022/07/13 03:08:04;;;;;;;1.73;1.63;;;25.50;74.50;;;;;;5096943;28;21006;-89
2022/07/13 03:10:31;;;;;;;2.00;1.90;;;25.50;74.70;;;;;;5098017;28;20531;-88
2022/07/13 03:12:58;;;;;;;1.73;1.63;;;25.50;74.60;;;;;;5097256;28;20474;-87
2022/07/13 03:15:25;;;;;;;2.17;2.07;;;25.50;74.70;;;;;;5096884;28;20501;-89
2022/07/13 03:17:52;;;;;;;1.87;1.77;;;25.50;74.50;;;;;;5077211;28;20476;-87
2022/07/13 03:20:19;;;;;;;1.70;1.60;;;25.50;74.70;;;;;;5076543;28;20535;-88
2022/07/13 03:22:48;;;;;;;1.90;1.80;;;25.50;74.80;;;;;;5093315;28;20952;-90
2022/07/13 03:25:16;;;;;;;1.90;1.80;;;25.50;74.90;;;;;;5096550;28;20488;-89
2022/07/13 03:27:43;;;;;;;2.03;1.90;;;25.50;74.60;;;;;;5097020;28;20463;-87
2022/07/13 03:30:10;;;;;;;1.80;1.70;;;25.50;74.70;;;;;;5096382;28;20443;-87
2022/07/13 03:32:37;;;;;;;1.90;1.80;;;25.50;74.60;;;;;;5096477;28;20810;-87
2022/07/13 03:35:05;;;;;;;1.90;1.80;;;25.60;74.60;;;;;;5096074;28;20475;-87
2022/07/13 03:37:32;;;;;;;1.60;1.50;;;25.50;74.60;;;;;;5095908;28;20886;-87
2022/07/13 03:39:59;;;;;;;1.97;1.87;;;25.50;74.40;;;;;;5095242;28;20500;-87
2022/07/13 03:42:27;;;;;;;1.87;1.67;;;25.60;74.50;;;;;;5096044;28;21023;-88
2022/07/13 03:44:54;;;;;;;1.70;1.60;;;25.60;74.30;;;;;;5093188;28;20554;-88
2022/07/13 03:47:21;;;;;;;2.10;2.00;;;25.60;74.40;;;;;;5075535;28;20429;-86
2022/07/13 03:49:47;;;;;;;1.43;1.33;;;25.50;74.30;;;;;;5075712;28;20524;-88
2022/07/13 03:52:14;;;;;;;1.77;1.67;;;25.60;74.40;;;;;;5075691;28;20804;-89
2022/07/13 03:54:41;;;;;;;1.80;1.70;;;25.50;74.30;;;;;;5075285;28;20560;-87
2022/07/13 03:57:08;;;;;;;2.10;2.00;;;25.50;74.30;;;;;;5075752;28;20528;-88
2022/07/13 03:59:36;;;;;;;1.73;1.63;;;25.50;74.20;;;;;;5075289;28;20974;-87
2022/07/13 04:02:03;;;;;;;1.80;1.70;;;25.60;74.30;;;;;;5083816;28;20487;-88
2022/07/13 04:04:30;;;;;;;1.80;1.70;;;25.50;74.30;;;;;;5095407;28;20556;-88
2022/07/13 04:06:57;;;;;;;2.10;1.97;;;25.50;74.30;;;;;;5084085;28;20445;-88
2022/07/13 04:09:24;;;;;;;2.10;2.00;;;25.60;74.50;;;;;;5084932;28;20561;-86
2022/07/13 04:11:51;;;;;;;1.73;1.63;;;25.50;74.20;;;;;;5093990;28;20447;-86
2022/07/13 04:14:18;;;;;;;1.87;1.77;;;25.50;74.20;;;;;;5094803;28;20530;-86
2022/07/13 04:16:46;;;;;;;1.80;1.70;;;25.50;75.00;;;;;;5095212;28;20471;-88
2022/07/13 04:19:13;;;;;;;1.60;1.50;;;25.50;74.20;;;;;;5095254;28;20527;-88
2022/07/13 04:21:40;;;;;;;2.03;1.93;;;25.50;74.20;;;;;;5089079;28;20453;-89
2022/07/13 04:24:07;;;;;;;1.80;1.70;;;25.50;74.30;;;;;;5086424;28;20531;-93
2022/07/13 04:26:34;;;;;;;1.70;1.60;;;25.50;74.30;;;;;;5094925;28;20436;-87
2022/07/13 04:29:01;;;;;;;2.07;1.97;;;25.50;74.30;;;;;;5095283;28;20474;-88
2022/07/13 04:31:28;;;;;;;1.90;1.80;;;25.50;74.40;;;;;;5096578;28;20519;-89
2022/07/13 04:33:57;;;;;;;1.83;1.73;;;25.50;74.50;;;;;;5096693;28;20505;-88
2022/07/13 04:36:25;;;;;;;2.20;2.10;;;25.50;75.20;;;;;;5095801;28;20441;-88
2022/07/13 04:38:52;;;;;;;1.80;1.70;;;25.50;74.80;;;;;;5094983;28;20460;-87
2022/07/13 04:41:19;;;;;;;1.80;1.70;;;25.50;74.50;;;;;;5095789;28;20510;-88
2022/07/13 04:43:46;;;;;;;1.80;1.70;;;25.50;74.30;;;;;;5094851;28;20485;-87
2022/07/13 04:46:13;;;;;;;2.27;2.07;;;25.50;74.20;;;;;;5095081;28;20483;-88
2022/07/13 04:48:40;;;;;;;1.50;1.40;;;25.50;74.10;;;;;;5094908;28;20447;-91
2022/07/13 04:51:09;;;;;;;1.73;1.63;;;25.50;74.10;;;;;;5094784;28;20527;-88
2022/07/13 04:53:36;;;;;;;1.80;1.70;;;25.50;74.20;;;;;;5094573;28;20440;-94
2022/07/13 04:56:03;;;;;;;1.57;1.47;;;25.50;74.20;;;;;;5094579;28;20474;-94
2022/07/13 04:58:29;;;;;;;1.80;1.70;;;25.50;74.30;;;;;;5094595;28;20475;-89
2022/07/13 05:00:56;;;;;;;1.90;1.80;;;25.50;74.30;;;;;;5094918;28;20446;-93
2022/07/13 05:03:23;;;;;;;1.63;1.53;;;25.50;74.30;;;;;;5094688;28;20536;-88
2022/07/13 05:05:50;;;;;;;1.70;1.60;;;25.50;74.30;;;;;;5094051;28;20494;-88
2022/07/13 05:08:18;;;;;;;1.83;1.73;;;25.50;74.40;;;;;;5094349;28;20495;-89
2022/07/13 05:10:46;;;;;;;2.07;1.97;;;25.50;74.40;;;;;;5094950;28;20467;-88
2022/07/13 05:13:13;;;;;;;1.63;1.53;;;25.60;74.60;;;;;;5095106;28;20451;-89
2022/07/13 05:15:40;;;;;;;1.90;1.80;;;25.70;74.80;;;;;;5104773;28;20487;-89
2022/07/13 05:18:06;;;;;;;2.57;1.87;;;25.50;74.70;;;;;;5105136;28;20608;-88
2022/07/13 05:20:33;;;;;;;2.00;1.90;;;25.50;74.60;;;;;;5102148;28;20480;-86
2022/07/13 05:23:00;;;;;;;2.07;1.90;;;25.50;74.30;;;;;;5099712;28;20965;-90
2022/07/13 05:25:28;;;;;;;1.97;1.87;;;25.50;74.20;;;;;;5094408;28;20514;-93
2022/07/13 05:27:55;;;;;;;1.80;1.70;;;25.50;74.30;;;;;;5088609;28;20453;-93
2022/07/13 05:30:22;;;;;;;1.80;1.70;;;25.60;74.40;;;;;;5073832;28;20540;-87
2022/07/13 05:32:49;;;;;;;1.93;1.83;;;25.50;74.20;;;;;;5091949;28;20440;-87
2022/07/13 05:35:16;;;;;;;1.67;1.57;;;25.50;74.10;;;;;;5094151;28;20436;-87
2022/07/13 05:37:42;;;;;;;2.17;2.07;;;25.50;74.10;;;;;;5078427;28;20536;-93
2022/07/13 05:40:10;;;;;;;1.80;1.70;;;25.60;74.20;;;;;;5073855;28;20536;-87
2022/07/13 05:42:38;;;;;;;2.13;2.03;;;25.50;74.00;;;;;;5073865;28;21017;-87
2022/07/13 05:45:06;;;;;;;2.10;1.90;;;25.60;74.00;;;;;;5074321;28;20511;-87
2022/07/13 05:47:33;;;;;;;1.80;1.70;;;25.60;74.20;;;;;;5073509;28;20436;-92
2022/07/13 05:50:00;;;;;;;1.60;1.50;;;25.60;74.50;;;;;;5074252;28;20440;-88
2022/07/13 05:52:26;;;;;;;2.80;1.77;;;25.60;74.60;;;;;;5073473;28;20499;-94
2022/07/13 05:54:54;;;;;;;1.57;1.47;;;25.60;74.50;;;;;;5073312;28;20563;-87
2022/07/13 05:57:21;;;;;;;1.47;1.37;;;25.50;75.40;;;;;;5073763;28;20437;-87
2022/07/13 05:59:49;;;;;;;2.87;1.60;;;25.50;74.80;;;;;;5073785;28;20443;-93
2022/07/13 06:02:16;;;;;;;1.87;1.77;;;25.60;74.90;;;;;;5073898;28;20445;-88
2022/07/13 06:04:43;;;;;;;1.73;1.63;;;25.60;74.60;;;;;;5077901;28;20468;-90
2022/07/13 06:07:10;;;;;;;1.73;1.63;;;25.60;75.10;;;;;;5083812;28;20479;-91
2022/07/13 06:09:37;;;;;;;1.70;1.60;;;25.60;75.20;;;;;;5077328;28;20880;-88
2022/07/13 06:12:04;;;;;;;1.47;1.37;;;25.60;75.10;;;;;;5077255;28;20445;-91
2022/07/13 06:14:32;;;;;;;1.77;1.67;;;25.60;75.70;;;;;;5077307;28;20527;-87
2022/07/13 06:17:00;;;;;;;1.40;1.30;;;25.50;74.50;;;;;;5076861;28;20445;-86
2022/07/13 06:19:27;;;;;;;1.60;1.50;;;25.60;74.50;;;;;;5076929;28;20545;-87
2022/07/13 06:21:54;;;;;;;2.17;1.70;;;25.60;74.40;;;;;;5076895;28;20537;-88
2022/07/13 06:24:21;;;;;;;1.57;1.47;;;25.60;74.40;;;;;;5077247;28;20441;-87
2022/07/13 06:26:48;;;;;;;2.57;1.70;;;25.60;74.40;;;;;;5077179;28;20510;-87
2022/07/13 06:29:15;;;;;;;1.60;1.50;;;25.50;74.30;;;;;;5078200;28;20444;-90
2022/07/13 06:31:42;;;;;;;1.80;1.70;;;25.60;74.30;;;;;;5076861;28;20437;-87
2022/07/13 06:34:10;;;;;;;1.90;1.70;;;25.60;74.30;;;;;;5076797;28;20444;-91
2022/07/13 06:36:38;;;;;;;1.80;1.70;;;25.60;74.20;;;;;;5076736;28;20452;-92
2022/07/13 06:39:05;;;;;;;3.00;1.43;;;25.60;74.20;;;;;;5076267;28;20457;-92
2022/07/13 06:41:32;;;;;;;1.40;1.30;;;25.60;74.20;;;;;;5077340;28;20837;-89
2022/07/13 06:43:59;;;;;;;1.67;1.57;;;25.60;74.20;;;;;;5077604;28;20447;-88
2022/07/13 06:46:26;;;;;;;1.80;1.70;;;25.60;74.20;;;;;;5076525;28;20834;-93
2022/07/13 06:48:53;;;;;;;1.63;1.53;;;25.80;74.30;;;;;;5076897;28;20850;-89
2022/07/13 06:51:21;;;;;;;1.77;1.67;;;25.60;74.10;;;;;;5079182;28;21007;-93
2022/07/13 06:53:48;;;;;;;1.77;1.67;;;25.60;74.40;;;;;;5078316;28;20535;-88
2022/07/13 06:56:15;;;;;;;1.67;1.53;;;25.50;74.50;;;;;;5076382;28;20480;-96
2022/07/13 06:58:41;;;;;;;1.73;1.40;;;25.60;74.40;;;;;;5076955;28;20532;-88
2022/07/13 07:01:09;;;;;;;1.70;1.33;;;25.60;74.40;;;;;;5076722;28;20445;-94
2022/07/13 07:03:36;;;;;;;1.63;1.53;;;25.60;74.30;;;;;;5076743;28;20449;-91
2022/07/13 07:06:03;;;;;;;1.50;1.40;;;25.60;74.30;;;;;;5076837;28;20484;-94
2022/07/13 07:08:31;;;;;;;1.50;1.40;;;25.60;74.20;;;;;;5076394;28;21035;-95
2022/07/13 07:10:58;;;;;;;1.97;1.87;;;25.60;74.20;;;;;;5076312;28;20440;-87
2022/07/13 07:13:25;;;;;;;1.53;1.43;;;25.60;74.20;;;;;;5076030;28;20472;-87
2022/07/13 07:15:52;;;;;;;1.90;1.80;;;25.60;74.20;;;;;;5075653;28;20441;-88
2022/07/13 07:18:21;;;;;;;2.47;1.70;;;25.60;74.20;;;;;;5076403;28;20781;-96
2022/07/13 07:20:48;;;;;;;1.60;1.50;;;25.60;74.10;;;;;;5076524;28;20455;-96
2022/07/13 07:23:15;;;;;;;1.53;1.43;;;25.60;74.10;;;;;;5076259;28;20443;-95
2022/07/13 07:25:43;;;;;;;1.77;1.67;;;25.60;74.10;;;;;;5076285;28;20907;-91
2022/07/13 07:28:11;;;;;;;1.63;1.53;;;25.60;74.10;;;;;;5076291;28;20817;-91
2022/07/13 07:30:38;;;;;;;1.60;1.50;;;25.60;74.10;;;;;;5075938;28;20499;-96
2022/07/13 07:33:05;;;;;;;1.90;1.80;;;25.60;74.00;;;;;;5076366;28;20767;-87
2022/07/13 07:35:32;;;;;;;1.50;1.40;;;25.60;74.00;;;;;;5079845;28;20437;-88
2022/07/13 07:37:59;;;;;;;1.33;1.23;;;25.60;74.00;;;;;;5084231;28;20449;-87
2022/07/13 07:40:26;;;;;;;1.57;1.47;;;25.60;74.00;;;;;;5086798;28;20480;-88
2022/07/13 07:42:55;;;;;;;1.50;1.40;;;25.60;74.00;;;;;;5084381;28;20560;-87
2022/07/13 07:45:22;;;;;;;1.50;1.40;;;25.60;74.10;;;;;;5076865;28;20571;-88
2022/07/13 07:47:48;;;;;;;1.57;1.47;;;25.60;74.10;;;;;;5076318;28;20440;-88
2022/07/13 07:50:15;;;;;;;1.60;1.50;;;25.60;74.00;;;;;;5075903;28;20476;-89
2022/07/13 07:52:42;;;;;;;1.60;1.50;;;25.60;74.00;;;;;;5075951;28;20489;-88
2022/07/13 07:55:09;;;;;;;1.37;1.27;;;25.60;74.00;;;;;;5075339;28;20830;-96
2022/07/13 07:57:45;;;;;;;1.30;1.20;;;25.60;74.00;;;;;;5075675;28;20441;-88
2022/07/13 08:00:14;;;;;;;1.40;1.30;;;25.70;74.00;;;;;;5075744;28;20473;-92
2022/07/13 08:02:41;;;;;;;1.40;1.30;;;25.60;74.00;;;;;;5075798;28;20532;-89
2022/07/13 08:05:09;;;;;;;1.87;1.67;;;25.60;74.00;;;;;;5075508;28;20452;-96
2022/07/13 08:07:39;;;;;;;1.30;1.20;;;25.60;73.80;;;;;;5075571;28;20465;-96
2022/07/13 08:10:07;;;;;;;1.50;1.40;;;25.60;73.90;;;;;;5075726;28;20441;-96
2022/07/13 08:12:34;;;;;;;1.50;1.40;;;25.60;73.90;;;;;;5075360;28;20451;-88
2022/07/13 08:15:00;;;;;;;1.40;1.30;;;25.60;73.90;;;;;;5075190;28;20456;-88
2022/07/13 08:17:29;;;;;;;1.70;1.60;;;25.60;74.00;;;;;;5075145;28;20444;-89
2022/07/13 08:19:56;;;;;;;2.33;1.30;;;25.60;73.90;;;;;;5075186;28;20480;-88
2022/07/13 08:22:22;;;;;;;1.23;1.13;;;25.70;74.00;;;;;;5075251;28;20446;-88
2022/07/13 08:24:49;;;;;;;1.30;1.20;;;25.70;73.90;;;;;;5074752;28;20488;-95
2022/07/13 08:27:16;;;;;;;2.33;1.30;;;25.70;73.90;;;;;;5074405;28;20491;-96
2022/07/13 08:29:43;;;;;;;1.30;1.20;;;25.60;73.90;;;;;;5074910;28;20447;-95
2022/07/13 08:32:10;;;;;;;1.30;1.20;;;25.60;73.80;;;;;;5075254;28;20469;-96
2022/07/13 08:40:08;;;;;;;1.43;1.33;;;25.60;73.90;;;;;;5075186;28;20416;-93
2022/07/13 08:42:35;;;;;;;1.50;1.40;;;25.60;74.00;;;;;;5075181;28;20793;-96
2022/07/13 08:45:02;;;;;;;2.67;1.60;;;25.60;73.90;;;;;;5074303;28;20523;-88
2022/07/13 08:47:30;;;;;;;1.50;1.40;;;25.60;73.90;;;;;;5074797;28;20484;-96
2022/07/13 08:50:03;;;;;;;1.50;1.40;;;25.70;74.00;;;;;;5074934;28;20441;-96
2022/07/13 08:52:31;;;;;;;1.17;1.07;;;25.60;73.80;;;;;;5075072;28;20440;-87
2022/07/13 08:54:59;;;;;;;1.40;1.30;;;25.60;73.90;;;;;;5075167;28;20469;-94
2022/07/13 08:57:28;;;;;;;1.40;1.30;;;25.60;73.90;;;;;;5075842;28;20448;-95
2022/07/13 08:59:54;;;;;;;1.37;1.17;;;25.60;73.80;;;;;;5076166;28;20524;-87
2022/07/13 09:02:21;;;;;;;1.50;1.40;;;25.60;73.80;;;;;;5077044;28;20531;-88
2022/07/13 09:04:50;;;;;;;1.30;1.20;;;25.60;73.80;;;;;;5078242;28;20493;-88
2022/07/13 09:07:19;;;;;;;1.40;1.30;;;25.70;73.80;;;;;;5075118;28;20484;-89
2022/07/13 09:09:46;;;;;;;1.23;1.13;;;25.70;73.80;;;;;;5074181;28;20538;-87
2022/07/13 09:12:16;;;;;;;1.60;1.50;;;25.70;73.80;;;;;;5074246;28;20448;-95
2022/07/13 09:14:44;;;;;;;1.33;1.10;;;25.70;73.80;;;;;;5073744;28;20444;-88
2022/07/13 09:17:29;;;;;;;1.30;1.20;;;25.70;73.80;;;;;;5074585;28;20955;-90
2022/07/13 09:19:56;;;;;;;1.63;1.53;;;25.70;73.70;;;;;;5074859;28;20562;-96
2022/07/13 09:22:24;;;;;;;1.40;1.30;;;25.70;73.80;;;;;;5074006;28;20532;-89
2022/07/13 09:24:53;;;;;;;2.17;1.10;;;25.70;73.80;;;;;;5073922;28;20445;-89
2022/07/13 09:27:21;;;;;;;1.30;1.20;;;25.70;73.80;;;;;;5074171;28;20869;-88
2022/07/13 09:29:48;;;;;;;1.40;1.30;;;25.70;73.70;;;;;;5074000;28;20920;-95
2022/07/13 09:32:16;;;;;;;1.40;1.30;;;25.70;73.70;;;;;;5073713;28;20502;-95
2022/07/13 09:34:54;;;;;;;1.60;1.50;;;25.70;73.80;;;;;;5073830;28;20477;-88
2022/07/13 09:37:24;;;;;;;1.40;1.30;;;25.70;74.20;;;;;;5073216;28;20520;-92
2022/07/13 09:39:59;;;;;;;1.53;1.40;;;25.70;73.80;;;;;;5073621;28;20569;-88
2022/07/13 09:42:27;;;;;;;1.67;1.57;;;25.70;73.80;;;;;;5074233;28;20523;-96
2022/07/13 09:47:47;;;;;;;1.50;1.40;;;25.70;73.70;;;;;;5073866;28;20475;-96
2022/07/13 09:50:15;;;;;;;1.27;1.17;;;25.70;73.80;;;;;;5074103;28;20528;-96
2022/07/13 09:52:44;;;;;;;1.50;1.40;;;25.70;73.70;;;;;;5073840;28;20463;-96
2022/07/13 09:55:12;;;;;;;1.33;1.23;;;25.70;73.70;;;;;;5073412;28;20809;-94
2022/07/13 09:57:45;;;;;;;1.30;1.20;;;25.70;73.80;;;;;;5073749;28;20484;-92
2022/07/13 10:00:17;;;;;;;1.47;1.37;;;25.70;73.80;;;;;;5073544;28;20799;-91
2022/07/13 10:02:47;;;;;;;1.30;1.20;;;25.70;73.90;;;;;;5073503;28;20441;-90
2022/07/13 10:05:15;;;;;;;1.57;1.47;;;25.60;73.80;;;;;;5073219;28;20441;-89
2022/07/13 10:07:47;;;;;;;2.03;1.40;;;25.70;73.80;;;;;;5080520;28;20495;-92
2022/07/13 10:10:16;;;;;;;1.60;1.50;;;25.70;73.80;;;;;;5080944;23;20512;-90
2022/07/13 10:12:44;;;;;;;1.30;1.20;;;25.70;73.80;;;;;;5079540;28;20449;-91
2022/07/13 10:32:00;;;;;;;1.60;1.40;;;25.60;74.10;;;;;;5005529;23;20497;-92
2022/07/13 10:35:02;;;;;;;1.23;1.13;;;25.60;74.20;;;;;;5066556;22;20497;-91
2022/07/13 10:40:15;;;;;;;1.20;1.10;;;25.70;74.10;;;;;;5113241;22;20479;-92
2022/07/13 10:43:18;;;;;;;1.47;1.37;;;25.70;74.00;;;;;;5113642;22;20515;-96
2022/07/13 10:45:51;;;;;;;1.50;1.40;;;25.70;73.90;;;;;;5169640;22;20476;-91
2022/07/13 10:48:42;;;;;;;1.40;1.20;;;25.70;74.00;;;;;;5080555;28;20451;-93
2022/07/13 10:54:12;;;;;;;1.83;1.60;;;25.70;75.00;;;;;;5090568;28;20433;-92
2022/07/13 10:57:12;;;;;;;2.10;1.47;;;25.70;74.20;;;;;;5086571;28;20798;-96
2022/07/13 11:02:47;;;;;;;1.60;1.50;;;25.80;74.20;;;;;;5134828;23;20479;-94
2022/07/13 11:05:40;;;;;;;1.40;1.30;;;25.80;74.20;;;;;;5136102;22;20493;-94
2022/07/13 11:08:17;;;;;;;1.60;1.50;;;25.80;74.20;;;;;;5134337;22;20490;-92
2022/07/13 11:10:49;;;;;;;1.40;1.30;;;25.80;74.20;;;;;;5141135;22;20756;-95
2022/07/13 11:13:27;;;;;;;1.47;1.37;;;25.70;74.20;;;;;;5176891;22;20499;-90
2022/07/13 11:15:55;;;;;;;1.13;1.03;;;25.80;74.20;;;;;;5055901;28;20441;-88
2022/07/13 11:18:30;;;;;;;1.20;1.10;;;25.70;74.10;;;;;;5058694;28;20529;-90
2022/07/13 11:21:00;;;;;;;1.67;1.57;;;25.70;74.20;;;;;;5055769;28;20442;-85
2022/07/13 11:26:35;;;;;;;1.53;1.23;;;25.70;74.20;;;;;;5058003;28;20776;-88
2022/07/13 11:29:17;;;;;;;1.47;1.37;;;25.80;74.30;;;;;;5056050;28;20948;-89
2022/07/13 11:31:44;;;;;;;2.17;1.37;;;25.80;74.30;;;;;;5059896;28;20771;-89
2022/07/13 11:34:27;;;;;;;1.43;1.33;;;25.80;74.40;;;;;;5059693;28;20473;-92
2022/07/13 11:36:57;;;;;;;1.63;1.53;;;25.80;74.20;;;;;;5061514;28;20477;-89
2022/07/13 11:39:26;;;;;;;1.90;1.70;;;25.80;74.30;;;;;;5057662;28;20454;-90
2022/07/13 11:41:54;;;;;;;1.20;1.10;;;25.80;74.30;;;;;;5059710;28;20545;-92
2022/07/13 11:44:23;;;;;;;1.30;1.20;;;25.80;74.30;;;;;;5061295;28;20452;-90
2022/07/13 11:46:50;;;;;;;1.30;1.20;;;25.80;74.20;;;;;;5062531;28;20470;-89
2022/07/13 11:49:18;;;;;;;1.20;1.10;;;25.80;74.30;;;;;;5064177;28;20452;-96
2022/07/13 11:51:46;;;;;;;2.10;1.10;;;25.80;74.40;;;;;;5064826;28;20486;-89
2022/07/13 11:54:16;;;;;;;1.70;1.60;;;25.80;74.30;;;;;;5062769;28;20438;-91
2022/07/13 11:56:47;;;;;;;1.30;1.20;;;25.80;74.30;;;;;;5062274;28;20465;-83
2022/07/13 11:59:14;;;;;;;1.30;1.20;;;25.80;74.40;;;;;;5055074;28;20434;-83
2022/07/13 12:01:50;;;;;;;1.40;1.30;;;25.80;74.30;;;;;;5054547;28;20544;-93
2022/07/13 12:04:27;;;;;;;1.57;1.30;;;25.80;74.40;;;;;;5055546;28;20925;-92
2022/07/13 12:07:09;;;;;;;2.40;1.60;;;25.80;74.30;;;;;;5054956;28;20531;-83
2022/07/13 12:09:38;;;;;;;1.97;1.43;;;25.80;74.20;;;;;;5054658;28;20480;-84
2022/07/13 12:12:05;;;;;;;2.70;1.20;;;25.80;74.40;;;;;;5054570;28;20476;-83
2022/07/13 12:14:32;;;;;;;1.60;1.50;;;25.80;74.30;;;;;;5054773;28;20468;-83
2022/07/13 12:17:00;;;;;;;1.50;1.40;;;25.80;74.30;;;;;;5054770;28;20529;-84
2022/07/13 12:19:29;;;;;;;2.47;1.60;;;25.80;74.30;;;;;;5054607;28;20464;-83
2022/07/13 12:21:59;;;;;;;4.50;1.83;;;25.80;74.30;;;;;;5054561;28;20444;-83
2022/07/13 12:24:27;;;;;;;1.90;1.80;;;25.80;74.30;;;;;;5054530;28;20477;-83
2022/07/13 12:26:55;;;;;;;2.17;1.40;;;25.80;74.40;;;;;;5054634;28;20485;-84
2022/07/13 12:29:28;;;;;;;1.70;1.60;;;25.80;74.40;;;;;;5054419;28;20448;-83
2022/07/13 12:31:55;;;;;;;3.80;1.47;;;25.80;74.30;;;;;;5054276;28;20445;-83
2022/07/13 12:34:22;;;;;;;3.50;2.10;;;25.80;74.70;;;;;;5054786;28;20485;-83
2022/07/13 12:36:49;;;;;;;2.83;2.23;;;25.80;74.70;;;;;;5054581;28;20529;-95
2022/07/13 12:39:16;;;;;;;1.40;1.30;;;25.80;74.70;;;;;;5056945;28;20460;-92
2022/07/13 12:41:44;;;;;;;1.93;1.50;;;25.80;74.70;;;;;;5066351;28;20434;-92
2022/07/13 12:44:13;;;;;;;1.70;1.60;;;25.80;74.70;;;;;;5063795;28;20936;-91
2022/07/13 12:46:50;;;;;;;2.00;1.40;;;25.80;74.70;;;;;;5058252;28;20469;-95
2022/07/13 12:49:17;;;;;;;1.67;1.57;;;25.80;74.70;;;;;;5059034;28;20826;-95
2022/07/13 12:51:50;;;;;;;2.33;1.60;;;25.80;74.80;;;;;;5057256;28;20503;-93
2022/07/13 12:54:18;;;;;;;1.93;1.50;;;25.80;74.80;;;;;;5057594;28;20438;-96
2022/07/13 12:56:50;;;;;;;3.40;1.33;;;25.70;74.70;;;;;;5059043;28;20452;-96
2022/07/13 12:59:21;;;;;;;2.33;1.60;;;25.80;74.70;;;;;;5057327;28;20856;-95
2022/07/13 13:01:49;;;;;;;1.63;1.53;;;25.90;74.80;;;;;;5058279;28;20456;-96
2022/07/13 13:04:17;;;;;;;2.47;2.03;;;25.90;74.70;;;;;;5059458;28;20446;-94
2022/07/13 13:06:47;;;;;;;3.33;1.47;;;25.90;74.70;;;;;;5057987;28;20833;-95
2022/07/13 13:09:15;;;;;;;1.80;1.67;;;25.80;74.60;;;;;;5056058;28;20450;-95
2022/07/13 13:11:43;;;;;;;2.90;1.70;;;25.70;74.50;;;;;;5058050;28;20446;-96
2022/07/13 13:14:11;;;;;;;5.93;1.73;;;25.90;74.70;;;;;;5077489;28;21041;-95
2022/07/13 13:16:40;;;;;;;3.23;1.83;;;25.80;74.60;;;;;;5077143;28;20456;-95
2022/07/13 13:19:07;;;;;;;1.70;1.60;;;25.90;74.70;;;;;;5077902;28;20445;-94
2022/07/13 13:21:35;;;;;;;1.53;1.43;;;25.90;74.60;;;;;;5077576;28;20441;-95
2022/07/13 13:24:06;;;;;;;2.17;1.50;;;25.90;74.70;;;;;;5077789;28;20445;-95
2022/07/13 13:26:34;;;;;;;1.93;1.63;;;25.90;74.60;;;;;;5075931;28;20425;-94
2022/07/13 13:31:56;;;;;;;1.80;1.50;;;25.90;74.60;;;;;;5054137;28;20436;-95
2022/07/13 13:34:23;;;;;;;2.33;1.53;;;25.90;74.60;;;;;;5077687;28;20452;-96